createdAt,value
2019-04-03T00:00:43.197Z,6.77
2019-04-03T00:03:12.521Z,7.23
2019-04-03T00:05:41.895Z,6.43
2019-04-03T00:08:11.244Z,6.90
2019-04-03T00:10:40.617Z,7.13
2019-04-03T00:13:11.740Z,6.93
2019-04-03T00:15:41.004Z,6.67
2019-04-03T00:18:10.351Z,7.10
2019-04-03T00:20:44.419Z,6.80
2019-04-03T00:23:13.938Z,6.90
2019-04-03T00:25:43.493Z,6.77
2019-04-03T00:28:12.857Z,6.73
2019-04-03T00:30:42.262Z,6.93
2019-04-03T00:33:11.539Z,6.30
2019-04-03T00:35:40.870Z,6.40
2019-04-03T00:38:10.261Z,6.30
2019-04-03T00:40:46.142Z,6.30
2019-04-03T00:43:15.482Z,6.40
2019-04-03T00:45:44.850Z,6.70
2019-04-03T00:48:14.229Z,5.67
2019-04-03T00:50:43.593Z,6.37
2019-04-03T00:53:12.903Z,5.73
2019-04-03T00:55:42.299Z,6.13
2019-04-03T00:58:36.773Z,6.13
2019-04-03T01:01:08.655Z,6.53
2019-04-03T01:03:38.069Z,5.60
2019-04-03T01:06:07.479Z,5.80
2019-04-03T01:08:36.792Z,6.17
2019-04-03T01:11:08.435Z,6.10
2019-04-03T01:13:37.843Z,5.83
2019-04-03T01:16:07.156Z,6.20
2019-04-03T01:18:39.922Z,5.90
2019-04-03T01:21:09.313Z,5.57
2019-04-03T01:23:38.708Z,5.73
2019-04-03T01:26:10.030Z,6.30
2019-04-03T01:28:41.470Z,6.00
2019-04-03T01:31:10.355Z,5.63
2019-04-03T01:33:39.657Z,5.77
2019-04-03T01:36:11.822Z,6.20
2019-04-03T01:38:41.208Z,6.10
2019-04-03T01:41:14.233Z,5.60
2019-04-03T01:43:43.623Z,6.10
2019-04-03T01:46:12.995Z,6.00
2019-04-03T01:48:42.349Z,6.07
2019-04-03T01:51:11.771Z,6.40
2019-04-03T01:53:41.191Z,6.10
2019-04-03T01:56:13.232Z,6.67
2019-04-03T01:58:42.605Z,6.67
2019-04-03T02:01:12.130Z,6.87
2019-04-03T02:03:42.167Z,6.53
2019-04-03T02:06:13.292Z,6.50
2019-04-03T02:08:44.374Z,6.70
2019-04-03T02:11:13.482Z,6.70
2019-04-03T02:13:42.849Z,6.10
2019-04-03T02:16:12.298Z,6.13
2019-04-03T02:18:41.691Z,6.37
2019-04-03T02:21:11.137Z,6.13
2019-04-03T02:23:40.537Z,6.17
2019-04-03T02:26:12.833Z,6.23
2019-04-03T02:28:42.155Z,6.43
2019-04-03T02:31:11.615Z,6.50
2019-04-03T02:33:40.981Z,6.43
2019-04-03T02:36:12.545Z,6.90
2019-04-03T02:38:41.343Z,6.20
2019-04-03T02:41:10.718Z,5.47
2019-04-03T02:43:40.102Z,6.17
2019-04-03T02:46:09.500Z,6.37
2019-04-03T02:48:38.985Z,5.70
2019-04-03T02:51:08.860Z,6.07
2019-04-03T02:53:38.981Z,5.93
2019-04-03T02:56:11.607Z,5.53
2019-04-03T02:58:39.275Z,5.87
2019-04-03T03:01:10.657Z,5.07
2019-04-03T03:03:40.013Z,5.73
2019-04-03T03:06:10.054Z,5.60
2019-04-03T03:08:42.551Z,5.43
2019-04-03T03:11:12.424Z,5.53
2019-04-03T03:13:42.247Z,5.73
2019-04-03T03:16:18.017Z,5.90
2019-04-03T03:18:46.037Z,5.70
2019-04-03T03:21:15.913Z,6.30
2019-04-03T03:23:45.304Z,6.10
2019-04-03T03:26:14.724Z,5.73
2019-04-03T03:28:46.907Z,5.53
2019-04-03T03:31:17.651Z,5.97
2019-04-03T03:33:47.767Z,6.00
2019-04-03T03:36:21.832Z,6.33
2019-04-03T03:38:51.062Z,6.40
2019-04-03T03:41:23.258Z,6.23
2019-04-03T03:43:52.432Z,6.23
2019-04-03T03:46:26.441Z,6.07
2019-04-03T03:48:54.032Z,5.80
2019-04-03T03:51:23.505Z,6.03
2019-04-03T03:53:55.664Z,6.07
2019-04-03T03:56:25.263Z,6.73
2019-04-03T03:58:55.209Z,6.73
2019-04-03T04:01:25.393Z,7.20
2019-04-03T04:03:55.561Z,6.70
2019-04-03T04:06:29.058Z,6.63
2019-04-03T04:08:57.142Z,6.87
2019-04-03T04:11:28.087Z,7.00
2019-04-03T04:13:58.231Z,6.80
2019-04-03T04:16:30.055Z,7.43
2019-04-03T04:18:59.081Z,7.13
2019-04-03T04:21:28.620Z,7.87
2019-04-03T04:23:57.909Z,7.50
2019-04-03T04:26:31.282Z,7.27
2019-04-03T04:28:59.863Z,7.57
2019-04-03T04:31:29.250Z,7.10
2019-04-03T04:33:58.618Z,7.53
2019-04-03T04:36:28.001Z,7.83
2019-04-03T04:38:57.955Z,6.90
2019-04-03T04:41:28.146Z,7.20
2019-04-03T04:43:57.638Z,7.77
2019-04-03T04:46:27.184Z,7.17
2019-04-03T04:48:56.547Z,7.63
2019-04-03T04:51:26.450Z,7.87
2019-04-03T04:53:55.926Z,7.70
2019-04-03T04:56:25.353Z,7.77
2019-04-03T04:58:54.765Z,7.47
2019-04-03T05:01:24.265Z,7.70
2019-04-03T05:03:54.201Z,7.90
2019-04-03T05:06:23.855Z,7.80
2019-04-03T05:08:53.219Z,7.63
2019-04-03T05:11:22.697Z,7.77
2019-04-03T05:13:51.990Z,7.37
2019-04-03T05:16:24.431Z,7.77
2019-04-03T05:18:53.009Z,7.37
2019-04-03T05:21:22.627Z,8.27
2019-04-03T05:23:51.982Z,7.67
2019-04-03T05:26:21.872Z,8.03
2019-04-03T05:28:57.190Z,7.93
2019-04-03T05:33:56.512Z,7.77
2019-04-03T05:36:25.911Z,8.00
2019-04-03T05:38:57.910Z,7.50
2019-04-03T05:41:33.661Z,8.57
2019-04-03T05:44:03.316Z,7.87
2019-04-03T05:46:32.772Z,8.00
2019-04-03T05:49:02.301Z,8.07
2019-04-03T05:51:31.752Z,7.73
2019-04-03T05:54:01.119Z,7.90
2019-04-03T05:56:30.586Z,8.73
2019-04-03T05:59:02.489Z,8.47
2019-04-03T06:01:30.954Z,7.97
2019-04-03T06:04:00.678Z,8.53
2019-04-03T06:06:30.546Z,7.90
2019-04-03T06:09:00.055Z,7.90
2019-04-03T06:11:29.779Z,8.30
2019-04-03T06:13:59.179Z,8.23
2019-04-03T06:16:28.457Z,8.03
2019-04-03T06:18:59.041Z,8.37
2019-04-03T06:21:28.704Z,8.40
2019-04-03T06:23:58.262Z,8.13
2019-04-03T06:26:27.767Z,8.07
2019-04-03T06:28:57.162Z,8.80
2019-04-03T06:31:27.198Z,8.73
2019-04-03T06:33:56.726Z,7.90
2019-04-03T06:36:26.074Z,8.57
2019-04-03T06:41:23.936Z,8.53
2019-04-03T06:43:54.519Z,8.87
2019-04-03T06:46:24.006Z,9.10
2019-04-03T06:48:55.251Z,9.20
2019-04-03T06:51:24.656Z,8.90
2019-04-03T06:53:59.620Z,8.37
2019-04-03T06:56:29.277Z,9.97
2019-04-03T06:58:58.662Z,8.50
2019-04-03T07:01:27.961Z,8.70
2019-04-03T07:03:57.377Z,8.67
2019-04-03T07:06:26.745Z,9.33
2019-04-03T07:08:56.044Z,9.47
2019-04-03T07:11:25.498Z,9.00
2019-04-03T07:13:54.927Z,8.70
2019-04-03T07:16:24.621Z,8.63
2019-04-03T07:18:56.172Z,9.23
2019-04-03T07:21:28.349Z,9.33
2019-04-03T07:24:00.121Z,9.20
2019-04-03T07:26:30.196Z,8.20
2019-04-03T07:28:59.602Z,7.63
2019-04-03T07:31:29.004Z,6.80
2019-04-03T07:34:00.197Z,6.90
2019-04-03T07:36:29.350Z,6.30
2019-04-03T07:38:59.056Z,5.33
2019-04-03T07:41:28.393Z,5.17
2019-04-03T07:43:58.639Z,5.03
2019-04-03T07:46:28.677Z,4.40
2019-04-03T07:48:59.909Z,4.13
2019-04-03T07:51:29.042Z,3.90
2019-04-03T07:53:58.482Z,3.70
2019-04-03T07:56:27.852Z,3.77
2019-04-03T07:58:57.220Z,2.90
2019-04-03T08:01:26.613Z,2.90
2019-04-03T08:03:56.055Z,3.30
2019-04-03T08:06:25.554Z,3.10
2019-04-03T08:09:06.825Z,3.20
2019-04-03T08:11:25.912Z,3.30
2019-04-03T08:13:55.321Z,2.80
2019-04-03T08:16:24.624Z,2.70
2019-04-03T08:18:53.869Z,2.80
2019-04-03T08:21:23.238Z,2.50
2019-04-03T08:23:52.590Z,2.73
2019-04-03T08:26:21.891Z,3.00
2019-04-03T08:28:51.455Z,2.87
2019-04-03T08:31:20.765Z,2.40
2019-04-03T08:33:50.177Z,2.37
2019-04-03T08:36:25.392Z,2.20
2019-04-03T08:38:50.843Z,2.40
2019-04-03T08:41:23.408Z,2.63
2019-04-03T08:43:51.593Z,2.87
2019-04-03T08:46:21.118Z,2.73
2019-04-03T08:48:50.420Z,2.63
2019-04-03T08:51:19.917Z,2.70
2019-04-03T08:53:49.227Z,2.70
2019-04-03T08:56:18.560Z,2.50
2019-04-03T08:58:48.137Z,2.63
2019-04-03T09:01:17.599Z,2.50
2019-04-03T09:03:46.882Z,2.60
2019-04-03T09:06:16.257Z,2.50
2019-04-03T09:08:45.597Z,2.57
2019-04-03T09:11:15.261Z,2.40
2019-04-03T09:13:44.937Z,2.50
2019-04-03T09:16:14.303Z,2.37
2019-04-03T09:18:43.664Z,2.20
2019-04-03T09:21:15.124Z,2.73
2019-04-03T09:23:44.480Z,2.60
2019-04-03T09:26:13.744Z,2.87
2019-04-03T09:28:43.134Z,2.70
2019-04-03T09:31:12.528Z,2.97
2019-04-03T09:33:41.843Z,2.90
2019-04-03T09:36:11.320Z,3.00
2019-04-03T09:38:41.798Z,2.80
2019-04-03T09:41:11.270Z,3.10
2019-04-03T09:43:40.961Z,3.20
2019-04-03T09:46:10.411Z,2.80
2019-04-03T09:48:39.765Z,3.07
2019-04-03T09:51:09.829Z,2.67
2019-04-03T09:53:39.196Z,3.00
2019-04-03T09:56:08.628Z,3.30
2019-04-03T09:58:37.949Z,3.00
2019-04-03T10:01:07.760Z,3.47
2019-04-03T10:03:37.167Z,3.77
2019-04-03T10:06:06.913Z,3.23
2019-04-03T10:08:38.126Z,3.37
2019-04-03T10:11:07.401Z,3.47
2019-04-03T10:13:36.720Z,3.50
2019-04-03T10:16:06.109Z,3.30
2019-04-03T10:18:35.456Z,3.27
2019-04-03T10:21:04.822Z,3.30
2019-04-03T10:23:34.342Z,3.70
2019-04-03T10:26:03.676Z,3.87
2019-04-03T10:28:33.226Z,3.37
2019-04-03T10:31:02.720Z,3.30
2019-04-03T10:33:32.510Z,4.10
2019-04-03T10:36:02.222Z,3.60
2019-04-03T10:38:31.687Z,3.70
2019-04-03T10:41:00.995Z,3.63
2019-04-03T10:43:30.434Z,3.47
2019-04-03T10:45:59.775Z,3.63
2019-04-03T10:48:29.149Z,4.03
2019-04-03T10:50:58.557Z,3.63
2019-04-03T10:53:27.924Z,3.80
2019-04-03T10:55:59.681Z,3.80
2019-04-03T10:58:29.104Z,3.60
2019-04-03T11:00:59.118Z,3.70
2019-04-03T11:03:29.043Z,3.67
2019-04-03T11:05:58.493Z,3.73
2019-04-03T11:08:28.026Z,3.50
2019-04-03T11:10:58.175Z,3.40
2019-04-03T11:13:28.312Z,3.80
2019-04-03T11:15:57.872Z,3.53
2019-04-03T11:18:27.347Z,3.63
2019-04-03T11:20:56.759Z,3.73
2019-04-03T11:23:38.397Z,3.03
2019-04-03T11:25:57.100Z,3.80
2019-04-03T11:28:26.412Z,4.00
2019-04-03T11:31:00.141Z,3.73
2019-04-03T11:33:26.709Z,3.60
2019-04-03T11:35:56.402Z,3.20
2019-04-03T11:38:28.191Z,3.37
2019-04-03T11:40:57.050Z,3.60
2019-04-03T11:43:26.545Z,3.60
2019-04-03T11:45:55.911Z,3.40
2019-04-03T11:48:27.089Z,3.50
2019-04-03T11:50:58.140Z,3.53
2019-04-03T11:53:28.138Z,3.53
2019-04-03T11:55:57.663Z,3.50
2019-04-03T11:58:27.611Z,3.60
2019-04-03T12:00:57.498Z,3.53
2019-04-03T12:03:26.868Z,3.33
2019-04-03T12:05:56.149Z,3.67
2019-04-03T12:08:28.917Z,4.50
2019-04-03T12:10:58.441Z,4.00
2019-04-03T12:13:27.834Z,4.37
2019-04-03T12:15:58.422Z,4.57
2019-04-03T12:18:28.418Z,4.53
2019-04-03T12:20:58.063Z,4.57
2019-04-03T12:23:27.808Z,4.50
2019-04-03T12:25:57.163Z,4.80
2019-04-03T12:28:26.541Z,4.83
2019-04-03T12:30:55.979Z,4.40
2019-04-03T12:33:25.367Z,4.83
2019-04-03T12:35:54.926Z,4.50
2019-04-03T12:38:24.329Z,4.80
2019-04-03T12:40:53.680Z,4.83
2019-04-03T12:43:25.666Z,4.70
2019-04-03T12:45:57.389Z,4.70
2019-04-03T12:48:27.883Z,5.23
2019-04-03T12:50:59.723Z,4.73
2019-04-03T12:53:28.066Z,5.00
2019-04-03T12:55:58.283Z,5.33
2019-04-03T12:58:27.840Z,5.50
2019-04-03T13:00:57.159Z,5.10
2019-04-03T13:03:26.539Z,5.57
2019-04-03T13:05:56.242Z,5.60
2019-04-03T13:08:25.717Z,4.80
2019-04-03T13:10:55.134Z,5.60
2019-04-03T13:13:26.705Z,5.43
2019-04-03T13:15:55.701Z,5.30
2019-04-03T13:18:25.339Z,5.73
2019-04-03T13:20:55.311Z,5.50
2019-04-03T13:23:24.878Z,5.23
2019-04-03T13:25:54.581Z,5.27
2019-04-03T13:28:23.969Z,4.87
2019-04-03T13:30:53.315Z,4.80
2019-04-03T13:33:22.684Z,5.03
2019-04-03T13:35:52.059Z,5.13
2019-04-03T13:38:21.715Z,4.60
2019-04-03T13:40:51.531Z,4.40
2019-04-03T13:43:22.326Z,4.97
2019-04-03T13:45:52.277Z,4.80
2019-04-03T13:48:21.786Z,4.90
2019-04-03T13:50:54.166Z,5.33
2019-04-03T13:53:24.678Z,4.90
2019-04-03T13:55:53.188Z,4.87
2019-04-03T13:58:22.542Z,4.93
2019-04-03T14:00:59.015Z,5.47
2019-04-03T14:03:23.144Z,5.00
2019-04-03T14:05:52.560Z,4.83
2019-04-03T14:08:21.983Z,4.67
2019-04-03T14:10:51.344Z,5.03
2019-04-03T14:13:20.663Z,5.13
2019-04-03T14:15:50.347Z,5.13
2019-04-03T14:18:20.154Z,4.83
2019-04-03T14:20:51.451Z,4.87
2019-04-03T14:23:20.577Z,4.83
2019-04-03T14:26:02.617Z,4.40
2019-04-03T14:28:21.129Z,4.60
2019-04-03T14:30:50.626Z,4.33
2019-04-03T14:33:20.278Z,4.03
2019-04-03T14:35:53.375Z,4.33
2019-04-03T14:38:20.569Z,4.63
2019-04-03T14:40:49.959Z,4.17
2019-04-03T14:43:21.927Z,5.20
2019-04-03T14:45:50.562Z,4.73
2019-04-03T14:48:20.015Z,4.30
2019-04-03T14:50:49.685Z,4.83
2019-04-03T14:53:20.280Z,4.50
2019-04-03T14:55:50.579Z,4.93
2019-04-03T14:58:20.907Z,4.93
2019-04-03T15:00:50.681Z,4.90
2019-04-03T15:03:20.193Z,5.00
2019-04-03T15:05:50.318Z,4.50
2019-04-03T15:08:20.294Z,4.33
2019-04-03T15:10:50.827Z,3.80
2019-04-03T15:13:20.141Z,3.77
2019-04-03T15:15:49.870Z,3.70
2019-04-03T15:18:19.299Z,3.50
2019-04-03T15:20:49.293Z,3.90
2019-04-03T15:23:19.774Z,3.60
2019-04-03T15:25:51.800Z,3.27
2019-04-03T15:28:20.066Z,3.23
2019-04-03T15:30:49.431Z,3.30
2019-04-03T15:33:18.776Z,3.37
2019-04-03T15:35:48.174Z,3.10
2019-04-03T15:38:19.194Z,3.40
2019-04-03T15:40:48.893Z,2.87
2019-04-03T15:43:18.201Z,2.90
2019-04-03T15:45:47.723Z,3.10
2019-04-03T15:48:17.115Z,3.20
2019-04-03T15:50:46.421Z,3.30
2019-04-03T15:53:15.879Z,3.00
2019-04-03T15:55:45.333Z,3.03
2019-04-03T15:58:14.841Z,3.07
2019-04-03T16:00:44.765Z,3.17
2019-04-03T16:03:15.003Z,3.50
2019-04-03T16:05:45.116Z,3.43
2019-04-03T16:08:14.444Z,3.40
2019-04-03T16:10:44.201Z,3.50
2019-04-03T16:13:16.082Z,3.23
2019-04-03T16:15:45.961Z,2.90
2019-04-03T16:18:15.795Z,3.20
2019-04-03T16:20:46.772Z,3.20
2019-04-03T16:23:16.210Z,3.30
2019-04-03T16:25:48.390Z,3.07
2019-04-03T16:28:16.578Z,3.47
2019-04-03T16:30:47.936Z,3.57
2019-04-03T16:33:21.393Z,3.30
2019-04-03T16:35:48.110Z,3.20
2019-04-03T16:38:17.747Z,3.20
2019-04-03T16:40:47.529Z,3.33
2019-04-03T16:43:17.008Z,3.20
2019-04-03T16:45:46.368Z,3.50
2019-04-03T16:48:16.864Z,3.50
2019-04-03T16:50:47.322Z,3.00
2019-04-03T16:53:19.237Z,3.60
2019-04-03T16:55:48.363Z,3.40
2019-04-03T16:58:17.959Z,3.50
2019-04-03T17:00:47.162Z,3.47
2019-04-03T17:03:17.114Z,3.47
2019-04-03T17:05:46.523Z,3.60
2019-04-03T17:08:15.937Z,3.80
2019-04-03T17:10:45.371Z,4.27
2019-04-03T17:13:14.706Z,3.97
2019-04-03T17:15:44.285Z,3.63
2019-04-03T17:18:16.526Z,4.00
2019-04-03T17:20:45.072Z,3.60
2019-04-03T17:23:14.578Z,3.90
2019-04-03T17:25:48.207Z,3.73
2019-04-03T17:28:15.306Z,3.60
2019-04-03T17:30:44.796Z,4.03
2019-04-03T17:33:14.456Z,4.13
2019-04-03T17:35:45.939Z,4.10
2019-04-03T17:38:15.086Z,4.00
2019-04-03T17:40:44.519Z,4.37
2019-04-03T17:43:16.820Z,4.13
2019-04-03T17:45:46.504Z,4.30
2019-04-03T17:48:16.348Z,5.37
2019-04-03T17:50:45.744Z,4.97
2019-04-03T17:53:15.122Z,5.17
2019-04-03T17:55:45.460Z,5.40
2019-04-03T17:58:16.968Z,5.10
2019-04-03T18:00:46.011Z,5.70
2019-04-03T18:03:15.416Z,5.17
2019-04-03T18:05:44.775Z,5.97
2019-04-03T18:08:14.163Z,6.37
2019-04-03T18:10:43.470Z,5.93
2019-04-03T18:13:13.275Z,6.33
2019-04-03T18:15:42.675Z,7.00
2019-04-03T18:18:12.138Z,6.87
2019-04-03T18:20:44.436Z,7.03
2019-04-03T18:23:12.546Z,6.33
2019-04-03T18:25:42.347Z,7.00
2019-04-03T18:28:11.801Z,6.40
2019-04-03T18:30:42.495Z,8.20
2019-04-03T18:33:12.457Z,9.57
2019-04-03T18:35:41.875Z,7.90
2019-04-03T18:38:11.235Z,7.30
2019-04-03T18:40:40.618Z,7.37
2019-04-03T18:43:09.920Z,7.73
2019-04-03T18:45:39.316Z,7.67
2019-04-03T18:48:08.722Z,7.97
2019-04-03T18:50:38.053Z,10.57
2019-04-03T18:53:09.552Z,35.90
2019-04-03T18:55:38.476Z,10.87
2019-04-03T18:58:07.852Z,21.87
2019-04-03T19:00:37.235Z,12.60
2019-04-03T19:03:06.685Z,12.33
2019-04-03T19:05:36.071Z,8.00
2019-04-03T19:08:12.899Z,8.03
2019-04-03T19:10:36.493Z,6.70
2019-04-03T19:13:06.170Z,7.00
2019-04-03T19:15:35.639Z,6.10
2019-04-03T19:18:18.194Z,6.27
2019-04-03T19:20:39.577Z,6.67
2019-04-03T19:23:10.849Z,6.63
2019-04-03T19:25:39.100Z,7.10
2019-04-03T19:28:08.480Z,6.40
2019-04-03T19:30:38.512Z,6.87
2019-04-03T19:33:08.012Z,7.07
2019-04-03T19:35:37.374Z,7.20
2019-04-03T19:38:06.766Z,7.00
2019-04-03T19:40:36.164Z,6.53
2019-04-03T19:43:05.555Z,7.37
2019-04-03T19:45:35.591Z,7.23
2019-04-03T19:48:06.763Z,6.97
2019-04-03T19:50:38.396Z,7.63
2019-04-03T19:53:08.168Z,7.07
2019-04-03T19:55:37.843Z,7.23
2019-04-03T19:58:08.048Z,7.30
2019-04-03T20:00:37.373Z,8.10
2019-04-03T20:03:06.779Z,6.60
2019-04-03T20:05:36.159Z,7.57
2019-04-03T20:08:06.802Z,7.17
2019-04-03T20:13:32.290Z,6.83
2019-04-03T20:16:02.852Z,6.90
2019-04-03T20:18:34.496Z,6.13
2019-04-03T20:21:04.397Z,6.20
2019-04-03T20:23:33.840Z,6.40
2019-04-03T20:26:04.607Z,20.93
2019-04-03T20:28:34.135Z,15.90
2019-04-03T20:31:03.783Z,6.87
2019-04-03T20:33:34.526Z,6.10
2019-04-03T20:36:03.914Z,5.57
2019-04-03T20:38:33.322Z,5.63
2019-04-03T20:41:03.257Z,5.57
2019-04-03T20:43:33.135Z,5.33
2019-04-03T20:46:02.557Z,6.47
2019-04-03T20:48:31.992Z,5.00
2019-04-03T20:51:01.381Z,5.20
2019-04-03T20:53:30.751Z,4.87
2019-04-03T20:56:00.208Z,4.70
2019-04-03T20:58:29.494Z,4.83
2019-04-03T21:01:06.847Z,5.00
2019-04-03T21:03:29.908Z,5.20
2019-04-03T21:05:59.321Z,5.03
2019-04-03T21:08:31.368Z,4.60
2019-04-03T21:11:01.741Z,4.90
2019-04-03T21:13:30.825Z,4.53
2019-04-03T21:16:00.613Z,4.63
2019-04-03T21:18:29.995Z,4.43
2019-04-03T21:21:01.441Z,4.70
2019-04-03T21:23:33.315Z,4.80
2019-04-03T21:26:01.323Z,4.40
2019-04-03T21:28:30.646Z,5.03
2019-04-03T21:31:00.044Z,4.37
2019-04-03T21:33:30.769Z,4.50
2019-04-03T21:36:00.490Z,4.67
2019-04-03T21:38:29.892Z,4.97
2019-04-03T21:40:59.271Z,4.10
2019-04-03T21:43:29.188Z,4.97
2019-04-03T21:45:59.002Z,4.33
2019-04-03T21:48:30.399Z,4.20
2019-04-03T21:50:59.984Z,7.90
2019-04-03T21:53:33.587Z,4.70
2019-04-03T21:56:02.943Z,4.30
2019-04-03T21:58:32.242Z,4.40
2019-04-03T22:01:26.869Z,4.27
2019-04-03T22:03:56.365Z,4.07
2019-04-03T22:06:28.089Z,3.97
2019-04-03T22:09:00.746Z,4.00
2019-04-03T22:11:30.142Z,3.87
2019-04-03T22:13:59.482Z,3.70
2019-04-03T22:16:28.840Z,3.80
2019-04-03T22:18:58.226Z,3.67
2019-04-03T22:21:27.585Z,3.27
2019-04-03T22:23:56.933Z,3.73
2019-04-03T22:26:26.295Z,3.43
2019-04-03T22:28:55.693Z,3.43
2019-04-03T22:31:25.059Z,3.10
2019-04-03T22:33:54.836Z,3.43
2019-04-03T22:36:24.148Z,3.60
2019-04-03T22:38:53.500Z,3.40
2019-04-03T22:41:22.825Z,3.40
2019-04-03T22:43:52.212Z,3.20
2019-04-03T22:46:22.014Z,3.70
2019-04-03T22:48:51.973Z,3.40
2019-04-03T22:51:21.359Z,3.30
2019-04-03T22:53:50.641Z,3.50
2019-04-03T22:56:19.934Z,3.47
2019-04-03T22:58:52.677Z,3.30
2019-04-03T23:01:20.247Z,3.30
2019-04-03T23:03:49.569Z,3.30
2019-04-03T23:06:19.447Z,3.60
2019-04-03T23:08:48.826Z,3.50
2019-04-03T23:11:18.173Z,3.57
2019-04-03T23:13:47.527Z,3.10
2019-04-03T23:16:16.908Z,3.43
2019-04-03T23:18:46.876Z,3.63
2019-04-03T23:21:16.852Z,3.33
2019-04-03T23:23:46.220Z,3.27
2019-04-03T23:26:15.598Z,3.50
2019-04-03T23:28:45.026Z,3.37
2019-04-03T23:31:14.419Z,3.83
2019-04-03T23:33:43.726Z,3.60
2019-04-03T23:36:13.005Z,3.80
2019-04-03T23:38:42.407Z,3.60
2019-04-03T23:41:11.721Z,3.80
2019-04-03T23:43:41.047Z,3.80
2019-04-03T23:46:10.351Z,3.80
2019-04-03T23:48:39.737Z,3.53
2019-04-03T23:51:09.161Z,3.90
2019-04-03T23:53:38.451Z,4.13
2019-04-03T23:56:07.967Z,3.57
2019-04-03T23:58:37.402Z,3.87
